Terminal Aerodrome Forecast
Issued by NWS

Current Version | Previous Version | Graphics & Text | Print | Product List | Glossary On
Versions: 1 2 3 4 5 6 7 8 9 10 11 12 13 14 15 16 17 18 19 20 21 22 23 24 25 26 27 28 29 30 31
225
FTUS41 KILN 270544
TAFLCK
TAF
KLCK 270544Z 2706/2806 VRB03KT P6SM BKN150
     FM271600 VRB05KT P6SM SCT035 BKN250
     FM280000 VRB04KT P6SM SCT120 BKN200=

USA.gov is the U.S. government's official web portal to all federal, state and local government web resources and services.